Time;durP1;ratioP1;P1;durP2;ratioP2;P2;SDS_P1;SDS_P2;PMS_P1;PMS_P2;Temp;Humidity;BMP_temperature;BMP_pressure;BME280_temperature;BME280_humidity;BME280_pressure;Samples;Min_cycle;Max_cycle;Signal;HPM_P1;HPM_P2
2021/01/17 00:00:15;;;;;;;0.70;0.60;;;-0.40;99.90;;;0.71;100.00;-8531.63;5012058;28;20774;-63
2021/01/17 00:02:47;;;;;;;0.60;0.50;;;-0.40;99.90;;;0.71;100.00;-8598.41;5001060;28;20188;-64
2021/01/17 00:05:21;;;;;;;0.60;0.60;;;-0.40;99.90;;;0.74;100.00;-8841.09;5011364;28;20609;-65
2021/01/17 00:07:52;;;;;;;0.70;0.70;;;-0.40;99.90;;;0.64;100.00;-8934.25;5004063;28;20270;-63
2021/01/17 00:10:26;;;;;;;0.60;0.60;;;-0.40;99.90;;;0.69;100.00;-9256.31;5016418;28;20183;-63
2021/01/17 00:12:55;;;;;;;0.70;0.60;;;-0.40;99.90;;;0.74;100.00;-9291.34;5014561;28;20184;-65
2021/01/17 00:15:23;;;;;;;0.60;0.60;;;-0.40;99.90;;;0.68;100.00;-9439.22;5005181;28;20210;-63
2021/01/17 00:17:50;;;;;;;0.65;0.60;;;-0.40;99.90;;;0.56;100.00;-9742.25;5015948;28;20183;-64
2021/01/17 00:20:21;;;;;;;0.60;0.60;;;-0.40;99.90;;;0.64;100.00;-9953.22;5006694;28;20180;-63
2021/01/17 00:22:50;;;;;;;0.60;0.60;;;-0.40;99.90;;;0.57;100.00;-9853.66;5013780;28;20187;-64
2021/01/17 00:25:18;;;;;;;0.60;0.60;;;-0.40;99.90;;;0.59;100.00;-10056.56;5015197;28;20191;-63
2021/01/17 00:27:48;;;;;;;0.60;0.60;;;-0.40;99.90;;;0.66;100.00;-9933.69;5009536;28;20191;-64
2021/01/17 00:30:16;;;;;;;0.60;0.60;;;-0.50;99.90;;;0.57;100.00;-10293.75;5011213;28;20776;-63
2021/01/17 00:32:48;;;;;;;0.60;0.60;;;-0.50;99.90;;;0.53;100.00;-10424.34;5013652;28;20190;-63
2021/01/17 00:35:15;;;;;;;0.60;0.55;;;-0.50;99.90;;;0.68;100.00;-10344.34;5009755;28;20195;-63
2021/01/17 00:37:44;;;;;;;0.60;0.50;;;-0.50;99.90;;;0.50;100.00;-11019.69;5003703;28;20183;-64
2021/01/17 00:40:12;;;;;;;0.60;0.60;;;-0.50;99.90;;;0.65;100.00;-10638.25;5015111;28;20206;-66
2021/01/17 00:42:50;;;;;;;0.60;0.60;;;-0.50;99.90;;;0.70;100.00;-10794.56;5024495;28;20574;-63
2021/01/17 00:45:19;;;;;;;0.60;0.50;;;-0.50;99.90;;;0.64;100.00;-10853.25;5013413;28;20226;-64
2021/01/17 00:47:48;;;;;;;0.60;0.50;;;-0.50;99.90;;;0.63;100.00;-11189.28;5015258;28;20187;-63
2021/01/17 00:50:17;;;;;;;0.77;0.77;;;-0.50;99.90;;;0.68;100.00;-11095.94;4988418;28;20282;-64
2021/01/17 00:52:50;;;;;;;0.60;0.60;;;-0.50;99.90;;;0.57;100.00;-11618.56;5014843;28;20193;-63
2021/01/17 00:55:18;;;;;;;0.70;0.60;;;-0.50;99.90;;;0.56;100.00;-11786.47;5023113;28;20282;-63
2021/01/17 00:57:46;;;;;;;0.80;0.70;;;-0.50;99.90;;;0.66;100.00;-11261.41;5030204;28;20199;-65
2021/01/17 01:00:18;;;;;;;0.70;0.60;;;-0.50;99.90;;;0.65;100.00;-11535.56;4996652;28;20222;-65
2021/01/17 01:03:11;;;;;;;0.60;0.50;;;-0.50;99.90;;;0.76;100.00;-11658.13;4996742;28;20249;-65
2021/01/17 01:05:38;;;;;;;0.70;0.60;;;-0.50;99.90;;;0.61;100.00;-11970.09;5007811;28;20219;-63
2021/01/17 01:08:08;;;;;;;0.70;0.60;;;-0.50;99.90;;;0.67;100.00;-11849.72;5005411;28;20725;-63
2021/01/17 01:10:35;;;;;;;0.60;0.50;;;-0.50;99.90;;;0.51;100.00;-12023.00;5029888;28;20190;-64
2021/01/17 01:13:02;;;;;;;0.60;0.55;;;-0.50;99.90;;;0.70;100.00;-11620.25;5013277;28;20183;-64
2021/01/17 01:15:29;;;;;;;0.60;0.60;;;-0.50;99.90;;;0.66;100.00;-11968.22;5009291;28;20207;-64
2021/01/17 01:17:56;;;;;;;0.65;0.60;;;-0.50;99.90;;;0.67;100.00;-12042.50;5030041;28;20191;-63
2021/01/17 01:20:23;;;;;;;0.60;0.50;;;-0.50;99.90;;;0.76;100.00;-11858.34;5026803;28;20221;-63
2021/01/17 01:22:50;;;;;;;0.60;0.50;;;-0.40;99.90;;;0.75;100.00;-11882.88;5026143;28;20602;-64
2021/01/17 01:25:19;;;;;;;0.60;0.60;;;-0.40;99.90;;;0.74;100.00;-12023.69;5014126;28;20222;-64
2021/01/17 01:27:46;;;;;;;1.27;1.17;;;-0.40;99.90;;;0.70;100.00;-12164.06;5015068;28;20539;-63
2021/01/17 01:30:15;;;;;;;0.60;0.60;;;-0.40;99.90;;;0.61;100.00;-12128.22;5013552;28;20272;-64
2021/01/17 01:32:42;;;;;;;0.60;0.50;;;-0.40;99.90;;;0.75;100.00;-11712.38;5011418;28;20186;-63
2021/01/17 01:35:11;;;;;;;0.60;0.50;;;-0.40;99.90;;;0.78;100.00;-11833.81;5008073;28;20202;-63
2021/01/17 01:37:38;;;;;;;0.60;0.50;;;-0.40;99.90;;;0.71;100.00;-12045.50;5018407;28;20187;-63
2021/01/17 01:40:07;;;;;;;0.60;0.60;;;-0.40;99.90;;;0.66;100.00;-12017.66;5009458;28;20229;-63
2021/01/17 01:42:34;;;;;;;0.80;0.80;;;-0.50;99.90;;;0.67;100.00;-12017.84;5014294;28;20195;-63
2021/01/17 01:45:02;;;;;;;0.60;0.50;;;-0.40;99.90;;;0.91;100.00;-11380.66;5000606;28;20230;-63
2021/01/17 01:47:29;;;;;;;0.80;0.80;;;-0.40;99.90;;;0.68;100.00;-12082.19;5012237;28;20179;-63
2021/01/17 01:49:58;;;;;;;0.60;0.52;;;-0.40;99.90;;;0.88;100.00;-11362.91;5028522;28;20218;-64
2021/01/17 01:52:26;;;;;;;0.70;0.60;;;-0.40;99.90;;;0.86;100.00;-11424.47;5008201;28;20596;-63
2021/01/17 01:54:53;;;;;;;0.60;0.60;;;-0.40;99.90;;;0.80;100.00;-11735.28;5013614;28;20175;-65
2021/01/17 01:57:20;;;;;;;0.60;0.60;;;-0.40;99.90;;;0.77;100.00;-11608.81;5013004;28;20663;-63
2021/01/17 01:59:51;;;;;;;0.60;0.60;;;-0.40;99.90;;;0.75;100.00;-11433.03;5011515;28;20219;-65
2021/01/17 02:02:19;;;;;;;0.60;0.60;;;-0.40;99.90;;;0.84;100.00;-11300.59;5014224;28;20194;-63
2021/01/17 02:04:46;;;;;;;0.60;0.60;;;-0.40;99.90;;;0.95;100.00;-11138.78;5009052;28;20195;-63
2021/01/17 02:07:49;;;;;;;0.60;0.50;;;-0.40;99.90;;;0.83;100.00;-11686.22;5013672;28;20206;-64
2021/01/17 02:10:17;;;;;;;0.60;0.50;;;-0.40;99.90;;;0.86;100.00;-11434.41;5013728;28;20661;-63
2021/01/17 02:12:52;;;;;;;0.60;0.60;;;-0.40;99.90;;;0.79;100.00;-11438.41;5008916;28;20203;-63
2021/01/17 02:15:27;;;;;;;0.60;0.60;;;-0.40;99.90;;;0.72;100.00;-11576.09;5014444;28;20229;-63
2021/01/17 02:17:58;;;;;;;0.60;0.50;;;-0.40;99.90;;;0.79;100.00;-11319.75;5012378;28;20183;-65
2021/01/17 02:20:27;;;;;;;1.30;1.13;;;-0.40;99.90;;;0.65;100.00;-11565.22;5012037;28;20211;-63
2021/01/17 02:23:07;;;;;;;0.60;0.60;;;-0.40;99.90;;;0.58;100.00;-11500.06;5011987;28;20195;-67
2021/01/17 02:25:37;;;;;;;1.92;1.10;;;-0.40;99.90;;;0.58;100.00;-11346.84;5011337;28;20178;-64
2021/01/17 02:28:07;;;;;;;1.02;1.02;;;-0.30;99.90;;;0.57;100.00;-11354.19;5012108;28;20198;-64
2021/01/17 02:30:39;;;;;;;0.60;0.55;;;-0.40;99.90;;;0.56;100.00;-11536.88;5010221;28;20194;-65
2021/01/17 02:33:13;;;;;;;0.60;0.60;;;-0.40;99.90;;;0.66;100.00;-11397.28;5010579;28;20580;-64
2021/01/17 02:35:41;;;;;;;0.60;0.60;;;-0.40;99.90;;;0.65;100.00;-11384.81;5010877;28;20237;-66
2021/01/17 02:38:28;;;;;;;0.63;0.57;;;-0.40;99.90;;;0.62;100.00;-11673.59;5011613;28;20644;-63
2021/01/17 02:41:11;;;;;;;0.63;0.57;;;-0.40;99.90;;;0.64;100.00;-11757.88;5011491;28;20192;-65
2021/01/17 02:43:39;;;;;;;0.60;0.60;;;-0.40;99.90;;;0.58;100.00;-11957.25;5013188;28;20225;-64
2021/01/17 02:46:06;;;;;;;0.60;0.60;;;-0.40;99.90;;;0.63;100.00;-12027.13;5010751;28;20253;-64
2021/01/17 02:48:34;;;;;;;0.60;0.50;;;-0.30;99.90;;;0.55;100.00;-12374.47;5028068;28;20187;-64
2021/01/17 02:51:04;;;;;;;0.60;0.50;;;-0.40;99.90;;;0.39;100.00;-12866.16;5009658;28;20544;-64
2021/01/17 02:53:44;;;;;;;0.60;0.50;;;-0.30;99.90;;;0.41;100.00;-13106.09;5012263;28;20538;-63
2021/01/17 02:56:18;;;;;;;0.60;0.60;;;-0.30;99.90;;;0.38;100.00;-13485.81;5007898;28;20616;-63
2021/01/17 02:58:51;;;;;;;0.60;0.50;;;-0.30;99.90;;;0.40;100.00;-13681.28;5008892;28;20691;-66
2021/01/17 03:01:25;;;;;;;0.60;0.60;;;-0.30;99.90;;;0.40;100.00;-13947.91;5012826;28;20601;-64
2021/01/17 03:04:15;;;;;;;0.60;0.50;;;-0.30;99.90;;;0.44;100.00;-14595.41;5011581;28;20631;-63
2021/01/17 03:06:46;;;;;;;0.60;0.60;;;-0.30;99.90;;;0.44;100.00;-14945.81;4995496;28;20183;-64
2021/01/17 03:09:13;;;;;;;0.65;0.60;;;-0.40;99.90;;;0.40;100.00;-15372.13;5007154;28;20230;-65
2021/01/17 03:11:41;;;;;;;0.88;0.88;;;-0.30;99.90;;;0.20;100.00;-15957.94;5012279;28;20209;-63
2021/01/17 03:14:10;;;;;;;0.60;0.60;;;-0.30;99.90;;;0.27;100.00;-16028.31;5012441;28;20252;-64
2021/01/17 03:16:37;;;;;;;0.60;0.60;;;-0.30;99.90;;;0.28;100.00;-16307.25;5012211;28;20201;-63
2021/01/17 03:19:04;;;;;;;0.60;0.60;;;-0.40;99.90;;;0.26;100.00;-16671.84;5007098;28;20195;-63
2021/01/17 03:21:31;;;;;;;1.48;0.57;;;-0.30;99.90;;;0.38;100.00;-16903.72;5027164;28;20198;-63
2021/01/17 03:23:58;;;;;;;0.70;0.60;;;-0.40;99.90;;;0.44;100.00;-17072.84;5011634;28;20182;-64
2021/01/17 03:26:27;;;;;;;0.60;0.60;;;-0.40;99.90;;;0.30;100.00;-17296.53;5012035;28;20191;-64
2021/01/17 03:28:55;;;;;;;0.70;0.50;;;-0.40;99.90;;;0.25;100.00;-17556.88;5009713;28;20214;-65
2021/01/17 03:31:23;;;;;;;0.60;0.60;;;-0.40;99.90;;;0.28;100.00;-17641.38;5011709;28;20686;-63
2021/01/17 03:33:50;;;;;;;0.60;0.50;;;-0.40;99.90;;;0.28;100.00;-17786.84;5007893;28;20180;-64
2021/01/17 03:36:17;;;;;;;0.60;0.50;;;-0.40;99.90;;;0.31;100.00;-17868.78;5006708;28;20206;-64
2021/01/17 03:38:44;;;;;;;0.60;0.50;;;-0.40;99.90;;;0.20;100.00;-18058.63;5012522;28;20206;-64
2021/01/17 03:41:12;;;;;;;0.60;0.50;;;-0.40;99.90;;;0.23;100.00;-18148.06;5011484;28;20187;-64
2021/01/17 03:43:39;;;;;;;0.60;0.60;;;-0.40;99.90;;;0.33;100.00;-18108.53;5011956;28;20206;-63
2021/01/17 03:46:07;;;;;;;0.60;0.50;;;-0.30;99.90;;;0.26;100.00;-18484.00;5009609;28;20233;-64
2021/01/17 03:48:34;;;;;;;0.60;0.60;;;-0.30;99.90;;;0.38;100.00;-18459.81;5012023;28;20636;-63
2021/01/17 03:51:02;;;;;;;0.60;0.55;;;-0.30;99.90;;;0.52;100.00;-18480.22;5005998;28;20192;-65
2021/01/17 03:53:29;;;;;;;0.77;0.60;;;-0.30;99.90;;;0.54;100.00;-18554.69;5011871;28;20201;-64
2021/01/17 03:55:57;;;;;;;0.60;0.55;;;-0.40;99.90;;;0.37;100.00;-18784.97;5005829;28;20187;-63
2021/01/17 03:58:23;;;;;;;0.60;0.50;;;-0.30;99.90;;;0.35;100.00;-18722.72;5012591;28;20660;-63
2021/01/17 04:00:51;;;;;;;0.60;0.50;;;-0.30;99.90;;;0.30;100.00;-18815.16;5011047;28;20195;-64
2021/01/17 04:03:19;;;;;;;0.60;0.60;;;-0.30;99.90;;;0.33;100.00;-18875.06;5012004;28;20666;-63
2021/01/17 04:05:46;;;;;;;0.60;0.60;;;-0.30;99.90;;;0.34;100.00;-19057.69;5004718;28;20571;-63
2021/01/17 04:08:13;;;;;;;0.60;0.60;;;-0.30;99.90;;;0.38;100.00;-19209.19;5004939;28;20245;-63
2021/01/17 04:10:40;;;;;;;0.60;0.60;;;-0.30;99.90;;;0.37;100.00;-19314.78;5015520;28;20191;-64
2021/01/17 04:13:07;;;;;;;0.70;0.60;;;-0.30;99.90;;;0.35;100.00;-19432.56;5014876;28;20198;-64
2021/01/17 04:15:33;;;;;;;0.60;0.50;;;-0.30;99.90;;;0.30;100.00;-19544.75;5008522;28;20199;-63
2021/01/17 04:18:01;;;;;;;0.60;0.60;;;-0.30;99.90;;;0.29;100.00;-19736.69;5015460;28;20187;-63
2021/01/17 04:20:29;;;;;;;0.60;0.60;;;-0.30;99.90;;;0.20;100.00;-19968.34;5014318;28;20207;-66
2021/01/17 04:23:01;;;;;;;0.70;0.60;;;-0.30;99.90;;;0.32;100.00;-20052.75;5014991;28;20182;-63
2021/01/17 04:25:31;;;;;;;0.60;0.50;;;-0.30;99.90;;;0.31;100.00;-20252.16;5029426;28;20512;-63
2021/01/17 04:27:59;;;;;;;0.70;0.60;;;-0.30;99.90;;;0.27;100.00;-20401.34;5015407;28;20195;-63
2021/01/17 04:30:31;;;;;;;0.60;0.50;;;-0.30;99.90;;;0.32;100.00;-20476.63;5001942;28;20215;-63
2021/01/17 04:32:58;;;;;;;1.65;1.55;;;-0.30;99.90;;;0.34;100.00;-20597.91;5012583;28;20209;-63
2021/01/17 04:35:25;;;;;;;0.60;0.60;;;-0.30;99.90;;;0.38;100.00;-20690.03;5008520;28;20245;-64
2021/01/17 04:37:57;;;;;;;0.60;0.50;;;-0.30;99.90;;;0.25;100.00;-20688.38;5004450;28;20249;-63
2021/01/17 04:40:26;;;;;;;0.77;0.77;;;-0.30;99.90;;;0.36;100.00;-20691.31;5015437;28;20618;-63
2021/01/17 04:43:07;;;;;;;0.60;0.60;;;-0.20;99.90;;;0.37;100.00;-20691.59;5030446;28;20201;-63
2021/01/17 04:45:35;;;;;;;0.70;0.60;;;-0.20;99.90;;;0.42;100.00;-20693.13;5002016;28;20199;-63
2021/01/17 04:48:04;;;;;;;0.60;0.50;;;-0.30;99.90;;;0.43;100.00;-20693.28;5031216;28;20182;-63
2021/01/17 04:50:33;;;;;;;0.70;0.60;;;-0.30;99.90;;;0.40;100.00;-20692.44;5012421;28;20212;-63
2021/01/17 04:53:04;;;;;;;0.60;0.60;;;-0.20;99.90;;;0.41;100.00;-20692.84;5010957;28;20198;-63
2021/01/17 04:55:35;;;;;;;0.65;0.60;;;-0.30;99.90;;;0.56;100.00;-20696.78;5013163;28;20183;-63
2021/01/17 04:58:16;;;;;;;1.27;1.13;;;-0.30;99.90;;;0.45;100.00;-20693.84;5015447;28;20277;-63
2021/01/17 05:00:55;;;;;;;0.63;0.60;;;-0.30;99.90;;;0.47;100.00;-20677.75;5012082;28;20302;-63
2021/01/17 05:03:48;;;;;;;0.60;0.60;;;-0.20;99.90;;;0.56;100.00;-20552.13;4998901;28;20194;-64
2021/01/17 05:06:25;;;;;;;0.70;0.70;;;-0.20;99.90;;;0.43;100.00;-20642.28;5028044;28;20206;-63
2021/01/17 05:08:59;;;;;;;0.60;0.60;;;-0.20;99.90;;;0.41;100.00;-20651.44;5011899;28;20179;-64
2021/01/17 05:11:36;;;;;;;0.60;0.50;;;-0.20;99.90;;;0.49;100.00;-20646.28;5015284;28;20186;-64
2021/01/17 05:14:12;;;;;;;0.60;0.60;;;-0.20;99.90;;;0.43;100.00;-20693.41;5013172;28;20214;-66
2021/01/17 05:16:42;;;;;;;0.60;0.60;;;-0.20;99.90;;;0.47;100.00;-20694.53;5009468;28;20544;-62
2021/01/17 05:19:15;;;;;;;0.60;0.50;;;-0.20;99.90;;;0.42;100.00;-20693.13;5011349;28;20300;-63
2021/01/17 05:21:46;;;;;;;0.60;0.50;;;-0.20;99.90;;;0.43;100.00;-20693.41;5014129;28;20183;-63
2021/01/17 05:24:16;;;;;;;0.60;0.60;;;-0.20;99.90;;;0.51;100.00;-20695.38;5014099;28;20180;-63
2021/01/17 05:26:52;;;;;;;0.60;0.55;;;-0.20;99.90;;;0.55;100.00;-20696.63;5014896;28;20191;-64
2021/01/17 05:29:21;;;;;;;0.60;0.60;;;-0.20;99.90;;;0.56;100.00;-20696.78;5009725;28;20205;-63
2021/01/17 05:31:56;;;;;;;0.60;0.60;;;-0.20;99.90;;;0.55;100.00;-20696.63;5014137;28;20655;-63
2021/01/17 05:34:24;;;;;;;0.65;0.60;;;-0.10;99.90;;;0.67;100.00;-20700.00;5029267;28;20217;-65
2021/01/17 05:37:03;;;;;;;0.70;0.60;;;-0.20;99.90;;;0.63;100.00;-20698.75;5001141;28;20943;-64
2021/01/17 05:39:32;;;;;;;0.60;0.50;;;-0.10;99.90;;;0.72;100.00;-20598.47;5004636;28;20199;-64
2021/01/17 05:42:06;;;;;;;0.60;0.50;;;-0.20;99.90;;;0.70;100.00;-20550.94;5004505;28;20180;-63
2021/01/17 05:44:33;;;;;;;0.70;0.60;;;-0.10;99.90;;;0.59;100.00;-20488.75;5011506;28;20626;-64
2021/01/17 05:47:18;;;;;;;0.60;0.60;;;-0.10;99.90;;;0.69;100.00;-20368.38;5013348;28;20205;-64
2021/01/17 05:49:45;;;;;;;0.60;0.50;;;-0.10;99.90;;;0.66;100.00;-20313.19;5013232;28;20187;-63
2021/01/17 05:52:14;;;;;;;2.05;1.95;;;-0.10;99.90;;;0.52;100.00;-20326.63;5013205;28;20206;-63
2021/01/17 05:54:43;;;;;;;0.70;0.60;;;-0.10;99.90;;;0.60;100.00;-20188.47;5012070;28;20179;-63
2021/01/17 05:57:13;;;;;;;0.60;0.50;;;-0.10;99.90;;;0.60;100.00;-20193.25;5013889;28;20671;-63
2021/01/17 05:59:42;;;;;;;0.60;0.50;;;-0.10;99.90;;;0.71;100.00;-20097.75;5028931;28;20253;-63
2021/01/17 06:02:18;;;;;;;0.60;0.55;;;-0.10;99.90;;;0.64;100.00;-20142.56;5013879;28;20682;-63
2021/01/17 06:04:49;;;;;;;0.68;0.60;;;-0.10;99.90;;;0.66;100.00;-20076.69;5008889;28;20222;-64
2021/01/17 06:07:20;;;;;;;0.63;0.60;;;0.00;99.90;;;0.60;100.00;-20124.38;5011595;28;20270;-65
2021/01/17 06:09:56;;;;;;;0.60;0.55;;;0.00;99.90;;;0.77;100.00;-20064.72;5003116;28;20199;-65
2021/01/17 06:12:31;;;;;;;0.60;0.60;;;-0.10;99.90;;;0.83;100.00;-20054.00;5006941;28;20230;-64
2021/01/17 06:15:05;;;;;;;0.60;0.60;;;-0.10;99.90;;;0.86;100.00;-19909.19;5011579;28;20640;-64
2021/01/17 06:17:34;;;;;;;0.60;0.60;;;0.00;99.90;;;0.88;100.00;-19828.47;5003113;28;20245;-64
2021/01/17 06:20:04;;;;;;;0.60;0.60;;;0.00;99.90;;;0.80;100.00;-19816.47;5013128;28;20226;-65
2021/01/17 06:22:32;;;;;;;0.80;0.80;;;0.00;99.90;;;0.81;100.00;-19671.25;5011353;28;20612;-65
2021/01/17 06:25:03;;;;;;;0.60;0.50;;;0.00;99.90;;;0.77;100.00;-19586.34;5010950;28;20187;-64
2021/01/17 06:27:30;;;;;;;0.60;0.60;;;0.00;99.90;;;0.59;100.00;-19742.03;5009745;28;20659;-63
2021/01/17 06:29:58;;;;;;;0.60;0.60;;;0.00;99.90;;;0.54;100.00;-19762.88;5008359;28;20218;-65
2021/01/17 06:32:30;;;;;;;0.60;0.50;;;0.00;99.90;;;0.63;100.00;-19853.88;5013832;28;20195;-64
2021/01/17 06:34:58;;;;;;;0.70;0.60;;;0.00;99.90;;;0.67;100.00;-19960.94;5027631;28;20725;-64
2021/01/17 06:37:28;;;;;;;0.60;0.50;;;0.00;99.90;;;0.72;100.00;-19930.25;4999596;28;20201;-63
2021/01/17 06:39:58;;;;;;;0.60;0.60;;;0.00;99.90;;;0.62;100.00;-19981.81;5005696;28;20210;-64
2021/01/17 06:42:26;;;;;;;0.70;0.68;;;0.00;99.90;;;0.71;100.00;-19917.66;5013278;28;20195;-64
2021/01/17 06:44:53;;;;;;;0.60;0.60;;;0.00;99.90;;;0.70;100.00;-19956.97;5002407;28;20219;-65
2021/01/17 06:47:23;;;;;;;0.60;0.60;;;0.00;99.90;;;0.69;100.00;-19929.44;5013390;28;20198;-65
2021/01/17 06:49:52;;;;;;;0.60;0.60;;;0.00;99.90;;;0.76;100.00;-19941.16;5009639;28;20257;-63
2021/01/17 06:52:19;;;;;;;0.60;0.60;;;0.00;99.90;;;0.77;100.00;-19936.50;5012621;28;20257;-63
2021/01/17 06:54:48;;;;;;;0.68;0.60;;;0.00;99.90;;;0.71;100.00;-19976.81;5011636;28;20682;-64
2021/01/17 06:57:16;;;;;;;0.60;0.50;;;0.00;99.90;;;0.63;100.00;-20001.78;5012449;28;20207;-64
2021/01/17 06:59:46;;;;;;;0.60;0.50;;;0.00;99.90;;;0.68;100.00;-20096.94;5011160;28;20234;-64
2021/01/17 07:02:38;;;;;;;0.70;0.60;;;0.00;99.90;;;0.70;100.00;-20262.53;5012718;28;20194;-64
2021/01/17 07:05:46;;;;;;;0.70;0.60;;;0.00;99.90;;;0.58;100.00;-20488.47;5005647;28;20180;-64
2021/01/17 07:08:49;;;;;;;0.60;0.55;;;0.00;99.90;;;0.67;100.00;-20609.28;4994679;28;20695;-64
2021/01/17 07:11:58;;;;;;;0.60;0.60;;;0.00;99.90;;;0.70;100.00;-20700.84;5012230;28;20233;-63
2021/01/17 07:14:29;;;;;;;0.68;0.60;;;0.00;99.90;;;0.66;100.00;-20699.72;4991747;28;20241;-63
2021/01/17 07:16:58;;;;;;;0.70;0.70;;;0.00;99.90;;;0.77;100.00;-20702.66;5008644;28;20576;-64
2021/01/17 07:19:39;;;;;;;0.70;0.60;;;0.10;99.90;;;0.67;100.00;-20700.00;5011079;28;20670;-65
2021/01/17 07:22:06;;;;;;;0.63;0.60;;;0.10;99.90;;;0.67;100.00;-20700.00;5008044;28;20182;-63
2021/01/17 07:24:34;;;;;;;0.60;0.50;;;0.10;99.90;;;0.64;100.00;-20699.00;5011683;28;20189;-63
2021/01/17 07:28:01;;;;;;;0.60;0.60;;;0.10;99.90;;;0.58;100.00;-20697.34;5011999;28;20643;-63
2021/01/17 07:30:42;;;;;;;0.90;0.90;;;0.10;99.90;;;0.62;100.00;-20698.59;4999567;28;20745;-65
2021/01/17 07:33:12;;;;;;;0.63;0.60;;;0.10;99.90;;;0.73;100.00;-20701.53;5009089;28;20837;-63
2021/01/17 07:35:42;;;;;;;0.60;0.50;;;0.10;99.90;;;0.73;100.00;-20701.66;5011314;28;20278;-63
2021/01/17 07:38:15;;;;;;;0.60;0.60;;;0.10;99.90;;;0.82;100.00;-20704.06;5012021;28;20222;-64
2021/01/17 07:40:50;;;;;;;0.60;0.60;;;0.10;99.90;;;0.81;100.00;-20703.78;5011863;28;20213;-65
2021/01/17 07:43:27;;;;;;;0.60;0.50;;;0.10;99.90;;;0.85;100.00;-20704.88;5006920;28;20198;-63
2021/01/17 07:45:57;;;;;;;0.60;0.50;;;0.10;99.90;;;0.92;100.00;-20706.84;5008793;28;20203;-63
2021/01/17 07:48:25;;;;;;;0.60;0.50;;;0.10;99.90;;;0.93;100.00;-20707.13;5031489;28;20671;-63
2021/01/17 07:50:54;;;;;;;0.60;0.60;;;0.10;99.90;;;0.88;100.00;-20705.72;5017598;28;20253;-64
2021/01/17 07:53:48;;;;;;;0.60;0.50;;;0.10;99.90;;;0.94;100.00;-20707.25;5015881;28;20183;-63
2021/01/17 07:56:17;;;;;;;0.95;0.95;;;0.10;99.90;;;0.79;100.00;-20703.22;5015320;28;20623;-64
2021/01/17 07:58:46;;;;;;;0.60;0.60;;;0.20;99.90;;;0.79;100.00;-20703.22;5010623;28;20254;-63
2021/01/17 08:01:47;;;;;;;0.60;0.50;;;0.20;99.90;;;0.86;100.00;-20705.03;5015727;28;20198;-63
2021/01/17 08:04:29;;;;;;;0.60;0.50;;;0.30;99.90;;;0.79;100.00;-20703.22;5000723;28;20203;-64
2021/01/17 08:07:01;;;;;;;0.60;0.60;;;0.20;99.90;;;0.91;100.00;-20706.56;5010588;28;20714;-65
2021/01/17 08:09:49;;;;;;;0.60;0.60;;;0.20;99.90;;;0.87;100.00;-20705.31;5008050;28;20194;-64
2021/01/17 08:12:37;;;;;;;0.60;0.60;;;0.20;99.90;;;0.79;100.00;-20703.22;5007740;28;20237;-64
2021/01/17 08:15:22;;;;;;;0.60;0.50;;;0.20;99.90;;;0.98;100.00;-20708.25;5013970;28;20218;-65
2021/01/17 08:17:50;;;;;;;0.60;0.50;;;0.20;99.90;;;1.04;100.00;-20709.94;5005201;28;20175;-63
2021/01/17 08:20:28;;;;;;;0.60;0.60;;;0.20;99.90;;;0.99;100.00;-20708.66;5007459;28;20668;-63
2021/01/17 08:23:10;;;;;;;0.60;0.60;;;0.30;99.90;;;0.91;100.00;-20706.56;5013082;28;20655;-63
2021/01/17 08:26:03;;;;;;;0.60;0.60;;;0.30;99.90;;;0.90;100.00;-20706.16;5014519;28;20241;-65
2021/01/17 08:28:38;;;;;;;0.60;0.60;;;0.40;99.90;;;0.87;100.00;-20705.44;5005009;28;20225;-64
2021/01/17 08:31:38;;;;;;;0.98;0.98;;;0.30;99.90;;;0.95;100.00;-20707.69;5010105;28;20269;-64
2021/01/17 08:34:11;;;;;;;1.30;1.20;;;0.40;99.90;;;0.96;100.00;-20707.97;5023854;28;20195;-64
2021/01/17 08:36:40;;;;;;;0.60;0.50;;;0.40;99.90;;;0.94;100.00;-20707.41;5008935;28;20233;-63
2021/01/17 08:39:08;;;;;;;0.70;0.60;;;0.40;99.90;;;0.86;100.00;-20705.16;5012892;28;20202;-63
2021/01/17 08:41:38;;;;;;;0.60;0.60;;;0.40;99.90;;;0.96;100.00;-20707.81;5009525;28;20230;-63
2021/01/17 08:44:11;;;;;;;0.60;0.50;;;0.40;99.90;;;0.89;100.00;-20706.00;5028710;28;20702;-63
2021/01/17 08:46:41;;;;;;;0.60;0.50;;;0.40;99.90;;;0.93;100.00;-20707.13;5012572;28;20635;-63
2021/01/17 08:49:09;;;;;;;1.88;1.00;;;0.40;99.90;;;0.93;100.00;-20707.13;5010981;28;20258;-63
2021/01/17 08:51:37;;;;;;;0.60;0.60;;;0.40;99.90;;;1.04;100.00;-20710.06;5011445;28;20243;-64
2021/01/17 08:54:25;;;;;;;0.60;0.50;;;0.50;99.90;;;1.27;100.00;-20716.34;5007966;28;20199;-63
2021/01/17 08:56:54;;;;;;;0.60;0.60;;;0.50;99.90;;;1.22;100.00;-20714.97;5009002;28;20262;-63
2021/01/17 08:59:37;;;;;;;0.60;0.52;;;0.50;99.90;;;1.12;100.00;-20712.16;5011365;28;20214;-62
2021/01/17 09:02:04;;;;;;;0.60;0.50;;;0.50;99.90;;;1.18;100.00;-20713.84;5010788;28;20191;-65
2021/01/17 09:04:32;;;;;;;0.60;0.60;;;0.50;99.90;;;1.27;100.00;-20716.34;5009651;28;20702;-66
2021/01/17 09:06:59;;;;;;;0.60;0.50;;;0.60;99.90;;;1.18;100.00;-20713.84;5011496;28;20190;-64
2021/01/17 09:09:27;;;;;;;0.60;0.60;;;0.60;99.90;;;1.22;100.00;-20714.81;5008453;28;20187;-65
2021/01/17 09:12:10;;;;;;;0.60;0.60;;;0.60;99.90;;;1.31;100.00;-20717.47;5005894;28;20184;-64
2021/01/17 09:14:38;;;;;;;0.60;0.60;;;0.60;99.90;;;1.31;100.00;-20717.34;5013671;28;20702;-64
2021/01/17 09:17:09;;;;;;;1.73;1.63;;;0.70;99.90;;;1.39;100.00;-20719.72;5014428;28;20198;-64
2021/01/17 09:19:37;;;;;;;0.60;0.60;;;0.70;99.90;;;1.45;100.00;-20721.25;5009247;28;20246;-64
2021/01/17 09:22:07;;;;;;;0.60;0.52;;;0.80;99.90;;;1.73;100.00;-20728.94;5012368;28;20571;-64
2021/01/17 09:24:36;;;;;;;0.60;0.60;;;0.90;99.90;;;1.71;100.00;-20728.38;5010770;28;20712;-64
2021/01/17 09:27:08;;;;;;;0.65;0.60;;;1.00;99.90;;;1.90;100.00;-20733.69;5013310;28;20221;-65
2021/01/17 09:29:37;;;;;;;1.45;1.35;;;1.00;99.90;;;1.89;100.00;-20733.41;5014213;28;20691;-65
2021/01/17 09:32:09;;;;;;;0.60;0.50;;;1.10;99.90;;;1.75;100.00;-20729.50;5013946;28;20186;-64
2021/01/17 09:34:41;;;;;;;0.60;0.50;;;1.00;99.90;;;1.82;100.00;-20731.44;5013958;28;20193;-64
2021/01/17 09:37:11;;;;;;;0.60;0.60;;;0.90;99.90;;;1.62;100.00;-20726.00;5011142;28;20187;-65
2021/01/17 09:39:42;;;;;;;0.70;0.68;;;0.90;99.90;;;1.42;100.00;-20720.41;5013492;28;20206;-65
2021/01/17 09:42:12;;;;;;;0.60;0.50;;;0.90;99.90;;;1.72;100.00;-20728.66;5013378;28;20229;-65
2021/01/17 09:44:41;;;;;;;0.60;0.60;;;0.90;99.90;;;1.98;100.00;-20735.63;5013472;28;20218;-65
2021/01/17 09:47:15;;;;;;;0.60;0.60;;;0.80;99.90;;;1.64;100.00;-20726.41;5012003;28;20230;-65
2021/01/17 09:49:44;;;;;;;1.20;1.10;;;0.80;99.90;;;1.34;100.00;-20718.16;5009933;28;20174;-65
2021/01/17 09:52:16;;;;;;;0.60;0.50;;;0.80;99.90;;;1.51;100.00;-20722.78;5009741;28;20651;-66
2021/01/17 09:54:45;;;;;;;1.00;1.00;;;0.80;99.90;;;1.29;100.00;-20716.91;5006489;28;20180;-65
2021/01/17 09:57:18;;;;;;;0.60;0.50;;;0.80;99.90;;;1.68;100.00;-20727.53;5011826;28;20613;-66
2021/01/17 09:59:46;;;;;;;0.60;0.60;;;0.80;99.90;;;1.69;100.00;-20727.97;5009126;28;20217;-65
2021/01/17 10:02:17;;;;;;;0.60;0.60;;;0.90;99.90;;;1.69;100.00;-20727.81;5010783;28;20225;-66
2021/01/17 10:04:45;;;;;;;0.60;0.50;;;0.90;99.90;;;1.73;100.00;-20728.78;5010958;28;20728;-66
2021/01/17 10:07:23;;;;;;;0.60;0.60;;;0.90;99.90;;;1.75;100.00;-20729.50;5010165;28;20281;-65
2021/01/17 10:09:55;;;;;;;0.60;0.50;;;1.00;99.90;;;1.68;100.00;-20727.66;5008734;28;20211;-65
2021/01/17 10:12:26;;;;;;;0.60;0.60;;;0.90;99.90;;;1.62;100.00;-20725.84;5013503;28;20193;-65
2021/01/17 10:14:54;;;;;;;0.60;0.50;;;1.00;99.90;;;1.73;100.00;-20728.78;5012683;28;20206;-68
2021/01/17 10:17:21;;;;;;;0.60;0.60;;;1.10;99.90;;;1.69;100.00;-20727.97;5013621;28;20636;-65
2021/01/17 10:19:48;;;;;;;0.63;0.60;;;1.10;99.90;;;1.73;100.00;-20728.94;5012399;28;20265;-66
2021/01/17 10:22:17;;;;;;;0.63;0.60;;;1.20;99.90;;;1.76;100.00;-20729.63;5008265;28;20697;-66
2021/01/17 10:24:44;;;;;;;0.60;0.50;;;1.10;99.90;;;1.76;100.00;-20729.75;5007488;28;20199;-66
2021/01/17 10:27:16;;;;;;;0.60;0.50;;;1.10;99.90;;;1.70;100.00;-20728.09;5012785;28;20198;-66
2021/01/17 10:29:43;;;;;;;1.10;1.02;;;1.10;99.90;;;1.56;100.00;-20724.19;5011779;28;20714;-67
2021/01/17 10:32:12;;;;;;;0.60;0.50;;;1.10;99.90;;;1.51;100.00;-20722.78;5013184;28;20234;-66
2021/01/17 10:34:41;;;;;;;0.60;0.50;;;1.00;99.90;;;1.49;100.00;-20722.22;5012459;28;20191;-67